Terminal Aerodrome Forecast
Issued by NWS

Home | Current Version | Previous Version | Text Only | Print | Product List | Glossary On
Versions: 1 2 3 4 5 6 7 8 9 10 11 12 13 14 15 16 17 18 19 20 21 22 23 24 25 26 27 28 29 30 31 32 33 34 35 36 37 38
000
FTAK31 PAFA 061738
TAFAUN
TAF
PAUN 061738Z 0618/0718 09012KT 6SM FU VCSH SCT035 BKN050 OVC100
     FM070300 12008KT 6SM -SHRA FU BR SCT025 BKN035 OVC050
     FM071500 19010KT P6SM -SHRA FEW025 SCT035 OVC050=

USA.gov is the U.S. government's official web portal to all federal, state and local government web resources and services.